Time;durP1;ratioP1;P1;durP2;ratioP2;P2;SDS_P1;SDS_P2;PMS_P1;PMS_P2;Temp;Humidity;BMP_temperature;BMP_pressure;BME280_temperature;BME280_humidity;BME280_pressure;Samples;Min_cycle;Max_cycle;Signal;HPM_P1;HPM_P2
2023/03/16 00:01:04;;;;;;;17.97;10.37;;;;;;;;;;5072759;28;20502;-72
2023/03/16 00:03:31;;;;;;;16.30;9.90;;;;;;;;;;5073086;28;20529;-71
2023/03/16 00:05:59;;;;;;;28.40;15.87;;;;;;;;;;5072582;28;20805;-72
2023/03/16 00:08:26;;;;;;;18.47;11.60;;;;;;;;;;5073077;28;20454;-72
2023/03/16 00:10:54;;;;;;;22.30;12.00;;;;;;;;;;5072676;28;20468;-72
2023/03/16 00:13:22;;;;;;;18.40;11.27;;;;;;;;;;5072673;28;20467;-72
2023/03/16 00:15:53;;;;;;;15.47;9.70;;;;;;;;;;5076582;28;20477;-72
2023/03/16 00:18:20;;;;;;;22.53;11.27;;;;;;;;;;5076736;28;20459;-72
2023/03/16 00:20:51;;;;;;;29.43;11.70;;;;;;;;;;5076698;28;20491;-72
2023/03/16 00:23:26;;;;;;;18.77;11.33;;;;;;;;;;5076773;28;20448;-72
2023/03/16 00:25:54;;;;;;;18.17;11.90;;;;;;;;;;5076800;28;20463;-71
2023/03/16 00:28:21;;;;;;;19.70;11.90;;;;;;;;;;5076715;28;20456;-72
2023/03/16 00:30:48;;;;;;;20.73;13.37;;;;;;;;;;5076467;28;20850;-72
2023/03/16 00:33:15;;;;;;;19.80;11.93;;;;;;;;;;5076654;28;20452;-72
2023/03/16 00:35:48;;;;;;;26.00;11.77;;;;;;;;;;5076431;28;20943;-71
2023/03/16 00:38:15;;;;;;;19.43;12.47;;;;;;;;;;5076447;28;20463;-71
2023/03/16 00:40:44;;;;;;;24.67;12.63;;;;;;;;;;5076553;28;20514;-71
2023/03/16 00:43:11;;;;;;;19.53;12.07;;;;;;;;;;5076314;28;20454;-71
2023/03/16 00:45:38;;;;;;;20.60;12.30;;;;;;;;;;5076233;28;20807;-71
2023/03/16 00:48:05;;;;;;;18.50;11.20;;;;;;;;;;5076394;28;20478;-71
2023/03/16 00:50:32;;;;;;;19.90;11.37;;;;;;;;;;5076074;28;20475;-71
2023/03/16 00:53:00;;;;;;;20.70;11.00;;;;;;;;;;5076069;28;20458;-71
2023/03/16 00:55:27;;;;;;;18.03;11.70;;;;;;;;;;5075930;28;20541;-72
2023/03/16 00:57:55;;;;;;;14.73;9.57;;;;;;;;;;5076190;28;20466;-72
2023/03/16 01:00:26;;;;;;;17.30;11.60;;;;;;;;;;5076014;28;20478;-72
2023/03/16 01:02:53;;;;;;;19.23;11.30;;;;;;;;;;5075992;28;20447;-72
2023/03/16 01:05:20;;;;;;;17.60;10.03;;;;;;;;;;5075303;28;20458;-72
2023/03/16 01:07:47;;;;;;;17.27;11.50;;;;;;;;;;5075623;28;20451;-72
2023/03/16 01:10:15;;;;;;;18.20;11.67;;;;;;;;;;5075810;28;20471;-72
2023/03/16 01:12:44;;;;;;;23.33;11.47;;;;;;;;;;5076085;28;20820;-72
2023/03/16 01:15:12;;;;;;;15.47;11.60;;;;;;;;;;5075996;28;20509;-72
2023/03/16 01:17:40;;;;;;;17.37;10.87;;;;;;;;;;5075649;28;20455;-72
2023/03/16 01:20:10;;;;;;;19.03;10.83;;;;;;;;;;5075685;28;20501;-72
2023/03/16 01:22:38;;;;;;;21.60;12.40;;;;;;;;;;5075546;28;20499;-72
2023/03/16 01:25:05;;;;;;;17.20;10.93;;;;;;;;;;5074772;28;20456;-72
2023/03/16 01:27:32;;;;;;;19.03;11.07;;;;;;;;;;5074750;28;20458;-71
2023/03/16 01:30:01;;;;;;;21.90;11.53;;;;;;;;;;5075234;28;20482;-71
2023/03/16 01:32:29;;;;;;;22.13;12.17;;;;;;;;;;5075432;28;20451;-71
2023/03/16 01:34:56;;;;;;;19.13;12.73;;;;;;;;;;5075201;28;20448;-71
2023/03/16 01:37:23;;;;;;;24.70;14.07;;;;;;;;;;5075399;28;20463;-71
2023/03/16 01:39:50;;;;;;;19.23;11.07;;;;;;;;;;5075287;28;20460;-71
2023/03/16 01:42:18;;;;;;;22.90;13.20;;;;;;;;;;5075107;28;20487;-71
2023/03/16 01:44:53;;;;;;;21.87;12.80;;;;;;;;;;5074957;28;20448;-72
2023/03/16 01:47:21;;;;;;;22.97;12.03;;;;;;;;;;5075213;28;20466;-71
2023/03/16 01:49:53;;;;;;;23.87;12.97;;;;;;;;;;5075223;28;20512;-71
2023/03/16 01:52:23;;;;;;;22.50;11.93;;;;;;;;;;5075104;28;20807;-71
2023/03/16 01:54:51;;;;;;;17.60;12.07;;;;;;;;;;5074899;28;20463;-72
2023/03/16 01:57:20;;;;;;;25.57;12.77;;;;;;;;;;5074833;28;20467;-71
2023/03/16 01:59:50;;;;;;;28.20;15.20;;;;;;;;;;5074937;28;20458;-71
2023/03/16 02:02:19;;;;;;;26.77;15.33;;;;;;;;;;5074669;28;20502;-71
2023/03/16 02:04:49;;;;;;;26.60;16.67;;;;;;;;;;5074251;28;20965;-71
2023/03/16 02:07:18;;;;;;;30.73;16.23;;;;;;;;;;5074816;28;20452;-71
2023/03/16 02:09:46;;;;;;;20.33;13.70;;;;;;;;;;5074924;28;20455;-71
2023/03/16 02:12:17;;;;;;;25.30;14.80;;;;;;;;;;5074593;28;20479;-71
2023/03/16 02:14:44;;;;;;;32.83;17.07;;;;;;;;;;5074862;28;20452;-71
2023/03/16 02:17:11;;;;;;;24.83;15.37;;;;;;;;;;5074813;28;20475;-71
2023/03/16 02:19:44;;;;;;;23.30;15.07;;;;;;;;;;5074558;28;20451;-71
2023/03/16 02:22:12;;;;;;;21.40;13.20;;;;;;;;;;5074259;28;20498;-71
2023/03/16 02:24:41;;;;;;;18.60;11.80;;;;;;;;;;5074443;28;20496;-71
2023/03/16 02:27:09;;;;;;;30.30;14.47;;;;;;;;;;5074247;28;20451;-71
2023/03/16 02:29:53;;;;;;;28.77;15.63;;;;;;;;;;5074449;28;20489;-71
2023/03/16 02:32:20;;;;;;;33.53;13.90;;;;;;;;;;5074221;28;20463;-71
2023/03/16 02:34:47;;;;;;;30.80;16.00;;;;;;;;;;5073984;28;20448;-71
2023/03/16 02:37:15;;;;;;;26.03;17.73;;;;;;;;;;5073866;28;20447;-71
2023/03/16 02:39:42;;;;;;;25.33;13.73;;;;;;;;;;5074289;28;20862;-71
2023/03/16 02:42:11;;;;;;;19.90;12.27;;;;;;;;;;5073939;28;20491;-71
2023/03/16 02:44:40;;;;;;;31.77;14.87;;;;;;;;;;5073964;28;20462;-71
2023/03/16 02:47:13;;;;;;;27.10;14.13;;;;;;;;;;5073829;28;20498;-71
2023/03/16 02:49:42;;;;;;;26.83;13.63;;;;;;;;;;5073995;28;20451;-71
2023/03/16 02:52:10;;;;;;;24.13;13.83;;;;;;;;;;5073891;28;20467;-71
2023/03/16 02:54:37;;;;;;;23.67;13.13;;;;;;;;;;5073738;28;20519;-71
2023/03/16 02:57:04;;;;;;;20.13;11.53;;;;;;;;;;5073788;28;20463;-71
2023/03/16 02:59:31;;;;;;;19.60;14.20;;;;;;;;;;5073997;28;20479;-71
2023/03/16 03:01:59;;;;;;;22.50;12.20;;;;;;;;;;5073707;28;20487;-71
2023/03/16 03:04:27;;;;;;;22.73;13.47;;;;;;;;;;5073599;28;20456;-71
2023/03/16 03:06:54;;;;;;;21.80;12.77;;;;;;;;;;5073233;28;20455;-71
2023/03/16 03:09:21;;;;;;;20.70;11.23;;;;;;;;;;5073519;28;20463;-71
2023/03/16 03:11:49;;;;;;;20.10;11.63;;;;;;;;;;5073463;28;20837;-71
2023/03/16 03:14:16;;;;;;;22.57;12.37;;;;;;;;;;5073125;28;20547;-71
2023/03/16 03:16:45;;;;;;;21.90;13.17;;;;;;;;;;5073538;28;20956;-71
2023/03/16 03:19:12;;;;;;;25.03;12.90;;;;;;;;;;5073562;28;20460;-71
2023/03/16 03:21:41;;;;;;;18.87;11.97;;;;;;;;;;5073307;28;20511;-71
2023/03/16 03:24:08;;;;;;;23.33;11.77;;;;;;;;;;5072989;28;20452;-71
2023/03/16 03:26:36;;;;;;;22.67;12.00;;;;;;;;;;5073388;28;20817;-71
2023/03/16 03:29:03;;;;;;;32.70;15.70;;;;;;;;;;5073283;28;20463;-71
2023/03/16 03:31:30;;;;;;;35.20;14.60;;;;;;;;;;5073036;28;20480;-71
2023/03/16 03:33:58;;;;;;;22.50;13.13;;;;;;;;;;5073259;28;20828;-70
2023/03/16 03:36:25;;;;;;;17.77;11.27;;;;;;;;;;5073423;28;20483;-70
2023/03/16 03:38:54;;;;;;;30.07;15.43;;;;;;;;;;5073128;28;20456;-71
2023/03/16 03:41:22;;;;;;;22.40;12.80;;;;;;;;;;5072811;28;20483;-70
2023/03/16 03:43:49;;;;;;;23.73;13.03;;;;;;;;;;5072791;28;20517;-70
2023/03/16 03:46:16;;;;;;;27.70;15.07;;;;;;;;;;5073065;28;20463;-70
2023/03/16 03:48:43;;;;;;;20.37;12.40;;;;;;;;;;5072446;28;20447;-70
2023/03/16 03:51:10;;;;;;;22.57;13.77;;;;;;;;;;5072888;28;20483;-70
2023/03/16 03:53:37;;;;;;;21.30;13.60;;;;;;;;;;5072814;28;20825;-71
2023/03/16 03:56:06;;;;;;;26.70;15.80;;;;;;;;;;5072763;28;20462;-71
2023/03/16 03:58:33;;;;;;;20.90;13.40;;;;;;;;;;5072771;28;20546;-71
2023/03/16 04:01:00;;;;;;;28.43;13.20;;;;;;;;;;5072811;28;20483;-71
2023/03/16 04:03:27;;;;;;;23.20;12.87;;;;;;;;;;5072882;28;20576;-71
2023/03/16 04:05:54;;;;;;;21.93;12.93;;;;;;;;;;5072320;28;20440;-70
2023/03/16 04:08:22;;;;;;;20.97;12.50;;;;;;;;;;5072727;28;20455;-71
2023/03/16 04:10:49;;;;;;;14.67;10.07;;;;;;;;;;5072603;28;20479;-71
2023/03/16 04:13:18;;;;;;;26.90;13.87;;;;;;;;;;5072786;28;20450;-71
2023/03/16 04:15:45;;;;;;;21.10;11.03;;;;;;;;;;5072691;28;20448;-71
2023/03/16 04:18:13;;;;;;;20.03;13.90;;;;;;;;;;5072725;28;20452;-71
2023/03/16 04:20:40;;;;;;;17.77;10.90;;;;;;;;;;5072775;28;20844;-71
2023/03/16 04:23:07;;;;;;;16.47;10.50;;;;;;;;;;5072518;28;20562;-71
2023/03/16 04:25:37;;;;;;;20.07;11.77;;;;;;;;;;5072738;28;20807;-71
2023/03/16 04:28:04;;;;;;;17.63;11.67;;;;;;;;;;5072562;28;20454;-71
2023/03/16 04:30:33;;;;;;;27.30;16.57;;;;;;;;;;5072435;28;20872;-71
2023/03/16 04:33:00;;;;;;;16.73;10.70;;;;;;;;;;5072526;28;20497;-71
2023/03/16 04:35:28;;;;;;;43.43;11.10;;;;;;;;;;5072307;28;20455;-71
2023/03/16 04:37:55;;;;;;;25.73;13.23;;;;;;;;;;5072578;28;20822;-71
2023/03/16 04:40:22;;;;;;;22.60;12.50;;;;;;;;;;5072389;28;20475;-71
2023/03/16 04:42:49;;;;;;;33.93;12.60;;;;;;;;;;5072671;28;20494;-71
2023/03/16 04:45:17;;;;;;;29.00;15.83;;;;;;;;;;5072425;28;20458;-71
2023/03/16 04:47:45;;;;;;;21.60;13.03;;;;;;;;;;5072482;28;20452;-71
2023/03/16 04:50:13;;;;;;;43.47;15.17;;;;;;;;;;5072308;28;20463;-71
2023/03/16 04:52:40;;;;;;;25.07;11.67;;;;;;;;;;5072354;28;20448;-71
2023/03/16 04:55:08;;;;;;;40.67;14.30;;;;;;;;;;5072063;28;20456;-70
2023/03/16 04:57:35;;;;;;;28.37;13.90;;;;;;;;;;5072463;28;20951;-71
2023/03/16 05:00:08;;;;;;;35.20;17.47;;;;;;;;;;5072880;28;20451;-71
2023/03/16 05:02:35;;;;;;;34.57;17.53;;;;;;;;;;5075933;28;20491;-71
2023/03/16 05:05:04;;;;;;;26.83;15.33;;;;;;;;;;5075266;28;20463;-71
2023/03/16 05:07:31;;;;;;;32.50;15.87;;;;;;;;;;5076072;28;20456;-71
2023/03/16 05:09:58;;;;;;;31.07;15.93;;;;;;;;;;5075715;28;20459;-71
2023/03/16 05:12:25;;;;;;;24.40;14.63;;;;;;;;;;5075910;28;20452;-70
2023/03/16 05:14:52;;;;;;;31.60;17.00;;;;;;;;;;5075641;28;20456;-70
2023/03/16 05:17:21;;;;;;;37.27;15.33;;;;;;;;;;5075703;28;20447;-70
2023/03/16 05:19:48;;;;;;;26.80;13.97;;;;;;;;;;5075865;28;20837;-70
2023/03/16 05:22:16;;;;;;;31.73;16.67;;;;;;;;;;5075534;28;20587;-70
2023/03/16 05:24:43;;;;;;;47.47;19.57;;;;;;;;;;5075346;28;20501;-71
2023/03/16 05:27:10;;;;;;;37.00;16.03;;;;;;;;;;5075457;28;20459;-71
2023/03/16 05:29:38;;;;;;;35.37;17.80;;;;;;;;;;5075717;28;20928;-71
2023/03/16 05:32:05;;;;;;;38.43;17.33;;;;;;;;;;5075341;28;20487;-71
2023/03/16 05:34:32;;;;;;;81.83;24.60;;;;;;;;;;5075641;28;20449;-71
2023/03/16 05:36:59;;;;;;;44.97;16.70;;;;;;;;;;5075405;28;20829;-71
2023/03/16 05:39:29;;;;;;;53.83;18.20;;;;;;;;;;5075455;28;20836;-71
2023/03/16 05:41:57;;;;;;;60.93;20.30;;;;;;;;;;5075238;28;20480;-71
2023/03/16 05:44:24;;;;;;;43.40;17.20;;;;;;;;;;5074881;28;20483;-71
2023/03/16 05:46:51;;;;;;;80.60;18.23;;;;;;;;;;5075339;28;20510;-71
2023/03/16 05:49:18;;;;;;;88.30;18.40;;;;;;;;;;5075030;28;20944;-71
2023/03/16 05:51:45;;;;;;;101.63;18.47;;;;;;;;;;5070506;28;20877;-71
2023/03/16 05:54:13;;;;;;;180.90;22.93;;;;;;;;;;5074744;28;20826;-71
2023/03/16 05:56:41;;;;;;;108.70;18.07;;;;;;;;;;5075014;28;20448;-71
2023/03/16 05:59:08;;;;;;;148.57;21.77;;;;;;;;;;5074668;28;20459;-71
2023/03/16 06:01:36;;;;;;;75.47;14.17;;;;;;;;;;5074945;28;20467;-71
2023/03/16 06:04:04;;;;;;;85.40;15.53;;;;;;;;;;5074449;28;20491;-71
2023/03/16 06:06:31;;;;;;;227.20;24.43;;;;;;;;;;5074226;28;20555;-71
2023/03/16 06:08:58;;;;;;;247.03;27.50;;;;;;;;;;5074371;28;20452;-71
2023/03/16 06:11:25;;;;;;;104.97;17.67;;;;;;;;;;5073960;28;20471;-71
2023/03/16 06:13:56;;;;;;;164.23;29.67;;;;;;;;;;5074222;28;20454;-71
2023/03/16 06:16:23;;;;;;;73.93;15.33;;;;;;;;;;5074337;28;20452;-71
2023/03/16 06:18:51;;;;;;;152.07;19.17;;;;;;;;;;5074469;28;20452;-71
2023/03/16 06:21:18;;;;;;;181.03;24.40;;;;;;;;;;5074613;28;20807;-71
2023/03/16 06:23:45;;;;;;;150.47;19.10;;;;;;;;;;5074488;28;20488;-71
2023/03/16 06:26:12;;;;;;;240.60;28.00;;;;;;;;;;5074067;28;20451;-71
2023/03/16 06:28:40;;;;;;;52.13;14.47;;;;;;;;;;5067440;28;20451;-71
2023/03/16 06:31:08;;;;;;;36.97;14.00;;;;;;;;;;5072677;28;20562;-71
2023/03/16 06:33:35;;;;;;;68.23;15.63;;;;;;;;;;5072581;28;20471;-71
2023/03/16 06:36:04;;;;;;;63.53;16.60;;;;;;;;;;5072739;28;20941;-71
2023/03/16 06:38:31;;;;;;;34.40;12.73;;;;;;;;;;5073232;28;20941;-71
2023/03/16 06:40:58;;;;;;;57.17;17.13;;;;;;;;;;5073021;28;20472;-71
2023/03/16 06:43:25;;;;;;;41.20;14.47;;;;;;;;;;5072718;28;20483;-71
2023/03/16 06:45:52;;;;;;;52.07;15.10;;;;;;;;;;5072904;28;20452;-71
2023/03/16 06:48:20;;;;;;;33.33;15.90;;;;;;;;;;5072635;28;20459;-71
2023/03/16 06:50:48;;;;;;;43.13;16.00;;;;;;;;;;5072220;28;20472;-71
2023/03/16 06:53:15;;;;;;;21.10;12.80;;;;;;;;;;5072285;28;20455;-71
2023/03/16 06:55:42;;;;;;;35.40;13.53;;;;;;;;;;5072237;28;20460;-71
2023/03/16 06:58:09;;;;;;;29.33;13.43;;;;;;;;;;5072013;28;20452;-71
2023/03/16 07:00:36;;;;;;;26.23;12.40;;;;;;;;;;5072131;28;20475;-71
2023/03/16 07:03:04;;;;;;;28.70;12.53;;;;;;;;;;5072231;28;20530;-72
2023/03/16 07:05:32;;;;;;;21.80;13.57;;;;;;;;;;5071453;28;20456;-72
2023/03/16 07:08:00;;;;;;;28.43;12.43;;;;;;;;;;5072057;28;20509;-72
2023/03/16 07:10:27;;;;;;;37.47;13.40;;;;;;;;;;5072158;28;20471;-72
2023/03/16 07:12:55;;;;;;;18.80;11.70;;;;;;;;;;5071955;28;20455;-72
2023/03/16 07:15:25;;;;;;;34.97;11.87;;;;;;;;;;5071859;28;20549;-72
2023/03/16 07:17:52;;;;;;;20.53;12.17;;;;;;;;;;5072076;28;20468;-72
2023/03/16 07:20:20;;;;;;;21.20;11.77;;;;;;;;;;5071465;28;20476;-72
2023/03/16 07:22:48;;;;;;;20.07;11.60;;;;;;;;;;5071828;28;20483;-72
2023/03/16 07:25:16;;;;;;;16.53;11.00;;;;;;;;;;5071713;28;20455;-72
2023/03/16 07:27:44;;;;;;;14.57;10.10;;;;;;;;;;5071475;28;20462;-72
2023/03/16 07:30:13;;;;;;;14.20;10.87;;;;;;;;;;5071463;28;20478;-72
2023/03/16 07:32:40;;;;;;;12.73;10.20;;;;;;;;;;5071818;28;20870;-72
2023/03/16 07:35:07;;;;;;;13.93;10.30;;;;;;;;;;5071577;28;20542;-72
2023/03/16 07:37:35;;;;;;;16.23;12.27;;;;;;;;;;5071986;28;20824;-72
2023/03/16 07:40:07;;;;;;;14.93;11.33;;;;;;;;;;5071621;28;20456;-73
2023/03/16 07:42:35;;;;;;;15.53;11.50;;;;;;;;;;5072835;28;20455;-73
2023/03/16 07:45:02;;;;;;;12.23;9.93;;;;;;;;;;5072594;28;20459;-73
2023/03/16 07:47:30;;;;;;;15.77;11.80;;;;;;;;;;5073112;28;20451;-73
2023/03/16 07:49:57;;;;;;;18.80;10.90;;;;;;;;;;5073116;28;20533;-73
2023/03/16 07:52:24;;;;;;;17.10;11.20;;;;;;;;;;5072918;28;20455;-73
2023/03/16 07:54:51;;;;;;;13.50;10.77;;;;;;;;;;5073088;28;20444;-73
2023/03/16 07:57:20;;;;;;;12.13;10.83;;;;;;;;;;5072843;28;20459;-73
2023/03/16 07:59:47;;;;;;;15.87;11.80;;;;;;;;;;5072693;28;20513;-74
2023/03/16 08:02:15;;;;;;;12.27;9.20;;;;;;;;;;5072789;28;20486;-74
2023/03/16 08:04:42;;;;;;;13.10;8.60;;;;;;;;;;5072313;28;20487;-73
2023/03/16 08:07:09;;;;;;;13.67;11.60;;;;;;;;;;5073560;28;20451;-73
2023/03/16 08:09:36;;;;;;;14.60;11.47;;;;;;;;;;5073277;28;20975;-73
2023/03/16 08:12:03;;;;;;;14.67;12.00;;;;;;;;;;5073097;28;21007;-73
2023/03/16 08:14:33;;;;;;;11.27;10.07;;;;;;;;;;5072747;28;20455;-73
2023/03/16 08:17:00;;;;;;;20.07;11.43;;;;;;;;;;5073058;28;20458;-73
2023/03/16 08:19:27;;;;;;;12.63;10.10;;;;;;;;;;5073136;28;20452;-73
2023/03/16 08:21:55;;;;;;;12.30;10.23;;;;;;;;;;5073086;28;20467;-73
2023/03/16 08:24:22;;;;;;;12.80;9.97;;;;;;;;;;5072474;28;20487;-73
2023/03/16 08:26:49;;;;;;;13.77;12.37;;;;;;;;;;5072820;28;20462;-73
2023/03/16 08:29:17;;;;;;;15.33;11.60;;;;;;;;;;5072916;28;20452;-73
2023/03/16 08:31:46;;;;;;;13.67;11.33;;;;;;;;;;5072627;28;21015;-73
2023/03/16 08:34:14;;;;;;;19.23;11.47;;;;;;;;;;5072482;28;20471;-73
2023/03/16 08:36:42;;;;;;;12.70;9.93;;;;;;;;;;5076186;28;20455;-73
2023/03/16 08:39:09;;;;;;;17.00;11.07;;;;;;;;;;5076419;28;20452;-73
2023/03/16 08:41:39;;;;;;;15.53;10.07;;;;;;;;;;5076730;28;20479;-73
2023/03/16 08:44:06;;;;;;;18.23;11.70;;;;;;;;;;5076281;28;20491;-73
2023/03/16 08:46:34;;;;;;;15.73;11.10;;;;;;;;;;5076817;28;20878;-73
2023/03/16 08:49:02;;;;;;;13.00;10.73;;;;;;;;;;5076417;28;20463;-73
2023/03/16 08:51:30;;;;;;;18.73;13.50;;;;;;;;;;5076715;28;20470;-73
2023/03/16 08:53:58;;;;;;;14.00;10.60;;;;;;;;;;5076065;28;20458;-73
2023/03/16 08:56:26;;;;;;;18.00;11.13;;;;;;;;;;5076273;28;20913;-73
2023/03/16 08:58:53;;;;;;;12.77;9.57;;;;;;;;;;5076229;28;20535;-73
2023/03/16 09:01:21;;;;;;;17.67;10.40;;;;;;;;;;5075981;28;20467;-73
2023/03/16 09:03:48;;;;;;;16.97;9.67;;;;;;;;;;5075753;28;20487;-73
2023/03/16 09:06:17;;;;;;;12.17;8.80;;;;;;;;;;5075355;28;20829;-73
2023/03/16 09:08:46;;;;;;;9.63;8.63;;;;;;;;;;5076039;28;20462;-73
2023/03/16 09:11:14;;;;;;;13.50;8.43;;;;;;;;;;5075821;28;20482;-73
2023/03/16 09:13:41;;;;;;;17.23;9.43;;;;;;;;;;5075911;28;20443;-73
2023/03/16 09:16:09;;;;;;;9.80;8.13;;;;;;;;;;5075983;28;20509;-73
2023/03/16 09:18:36;;;;;;;10.10;7.97;;;;;;;;;;5075962;28;20518;-73
2023/03/16 09:21:05;;;;;;;10.33;8.60;;;;;;;;;;5075652;28;20476;-73
2023/03/16 09:23:36;;;;;;;9.10;7.67;;;;;;;;;;5075761;28;20831;-73
2023/03/16 09:26:06;;;;;;;8.10;6.10;;;;;;;;;;5077519;28;20554;-73
2023/03/16 09:28:33;;;;;;;10.10;7.50;;;;;;;;;;5076063;28;20811;-73
2023/03/16 09:31:01;;;;;;;8.97;6.83;;;;;;;;;;5075627;28;20484;-73
2023/03/16 09:33:29;;;;;;;8.87;6.30;;;;;;;;;;5075521;28;20467;-73
2023/03/16 09:35:57;;;;;;;7.10;6.40;;;;;;;;;;5075597;28;20451;-74
2023/03/16 09:38:25;;;;;;;6.53;5.80;;;;;;;;;;5075444;28;21023;-74
2023/03/16 09:40:59;;;;;;;7.63;6.80;;;;;;;;;;5075367;28;20527;-74
2023/03/16 09:43:42;;;;;;;9.73;6.10;;;;;;;;;;5075256;28;20483;-73
2023/03/16 09:46:10;;;;;;;7.17;6.13;;;;;;;;;;5058895;28;20455;-73
2023/03/16 09:48:38;;;;;;;7.60;6.80;;;;;;;;;;5074991;28;20783;-73
2023/03/16 09:51:07;;;;;;;10.90;6.60;;;;;;;;;;5075160;28;20463;-73
2023/03/16 09:53:35;;;;;;;7.40;6.50;;;;;;;;;;5075315;28;20447;-72
2023/03/16 09:56:05;;;;;;;6.60;5.90;;;;;;;;;;5075293;28;20921;-73
2023/03/16 09:58:33;;;;;;;6.77;5.10;;;;;;;;;;5075134;28;20452;-73
2023/03/16 10:01:03;;;;;;;6.00;5.43;;;;;;;;;;5075061;28;20554;-73
2023/03/16 10:03:36;;;;;;;8.47;7.27;;;;;;;;;;5075009;28;21073;-73
2023/03/16 10:06:05;;;;;;;5.57;5.07;;;;;;;;;;5075027;28;20807;-73
2023/03/16 10:08:36;;;;;;;5.93;5.23;;;;;;;;;;5068573;28;20525;-73
2023/03/16 10:11:18;;;;;;;4.70;4.27;;;;;;;;;;5073366;28;20475;-73
2023/03/16 10:13:47;;;;;;;7.53;5.60;;;;;;;;;;5073749;28;20451;-73
2023/03/16 10:16:17;;;;;;;6.43;5.83;;;;;;;;;;5072784;28;20451;-73
2023/03/16 10:18:45;;;;;;;5.30;4.00;;;;;;;;;;5073590;28;20463;-73
2023/03/16 10:21:13;;;;;;;7.30;4.57;;;;;;;;;;5073357;28;20483;-72
2023/03/16 10:23:41;;;;;;;5.50;5.00;;;;;;;;;;5072854;28;20491;-72
2023/03/16 10:26:13;;;;;;;6.90;4.90;;;;;;;;;;5073126;28;20451;-72
2023/03/16 10:28:44;;;;;;;5.47;4.97;;;;;;;;;;5073118;28;20819;-73
2023/03/16 10:31:12;;;;;;;5.17;4.67;;;;;;;;;;5073137;28;20555;-73
2023/03/16 10:33:40;;;;;;;5.10;4.60;;;;;;;;;;5073233;28;20473;-73
2023/03/16 10:36:12;;;;;;;5.10;4.60;;;;;;;;;;5072739;28;20448;-72
2023/03/16 10:38:45;;;;;;;6.80;5.60;;;;;;;;;;5072945;28;20829;-72
2023/03/16 10:41:24;;;;;;;6.10;5.50;;;;;;;;;;5072909;28;20529;-72
2023/03/16 10:43:54;;;;;;;6.67;5.97;;;;;;;;;;5072919;28;21011;-73
2023/03/16 10:46:21;;;;;;;4.80;4.30;;;;;;;;;;5072388;28;20455;-73
2023/03/16 10:48:53;;;;;;;9.40;4.53;;;;;;;;;;5072719;28;20513;-72
2023/03/16 10:51:24;;;;;;;5.23;4.43;;;;;;;;;;5072616;28;20946;-72
2023/03/16 10:53:52;;;;;;;7.80;5.20;;;;;;;;;;5072472;28;20448;-72
2023/03/16 10:56:21;;;;;;;4.77;4.03;;;;;;;;;;5072266;28;20456;-72
2023/03/16 10:58:48;;;;;;;4.53;4.13;;;;;;;;;;5072333;28;20544;-72
2023/03/16 11:01:20;;;;;;;4.83;4.10;;;;;;;;;;5072176;28;20483;-73
2023/03/16 11:03:49;;;;;;;3.97;3.57;;;;;;;;;;5072453;28;20589;-73
2023/03/16 11:06:21;;;;;;;4.23;3.83;;;;;;;;;;5063999;28;20514;-73
2023/03/16 11:08:48;;;;;;;4.23;3.50;;;;;;;;;;5061622;28;20550;-72
2023/03/16 11:11:18;;;;;;;4.23;3.90;;;;;;;;;;5072700;28;20475;-72
2023/03/16 11:13:46;;;;;;;3.60;3.30;;;;;;;;;;5073336;28;20462;-72
2023/03/16 11:16:29;;;;;;;4.70;3.53;;;;;;;;;;5073472;28;20488;-72
2023/03/16 11:18:57;;;;;;;2.90;2.60;;;;;;;;;;5073586;28;20501;-73
2023/03/16 11:21:31;;;;;;;5.27;3.10;;;;;;;;;;5073345;28;20830;-73
2023/03/16 11:23:59;;;;;;;6.47;3.70;;;;;;;;;;5073558;28;20870;-72
2023/03/16 11:26:30;;;;;;;4.83;3.87;;;;;;;;;;5073497;28;20455;-72
2023/03/16 11:29:01;;;;;;;3.47;3.17;;;;;;;;;;5073578;28;20839;-72
2023/03/16 11:31:35;;;;;;;4.40;4.00;;;;;;;;;;5073164;28;20984;-72
2023/03/16 11:34:02;;;;;;;3.40;3.03;;;;;;;;;;5073179;28;20444;-72
2023/03/16 11:36:39;;;;;;;3.43;3.10;;;;;;;;;;5071575;28;20528;-71
2023/03/16 11:39:11;;;;;;;3.30;3.00;;;;;;;;;;5061900;28;20456;-72
2023/03/16 11:41:44;;;;;;;3.20;2.90;;;;;;;;;;5064046;28;20876;-71
2023/03/16 11:44:14;;;;;;;4.37;3.90;;;;;;;;;;5056343;28;20571;-72
2023/03/16 11:46:48;;;;;;;4.83;3.50;;;;;;;;;;5053168;28;20459;-72
2023/03/16 11:49:24;;;;;;;4.20;3.40;;;;;;;;;;5053186;28;20459;-72
2023/03/16 11:51:56;;;;;;;3.83;3.50;;;;;;;;;;5052761;28;20472;-72
2023/03/16 11:54:31;;;;;;;3.43;3.13;;;;;;;;;;5052820;28;20448;-72
2023/03/16 11:57:01;;;;;;;5.23;3.30;;;;;;;;;;5052919;28;20945;-72
2023/03/16 11:59:35;;;;;;;3.60;3.30;;;;;;;;;;5052886;28;20456;-72
2023/03/16 12:02:14;;;;;;;3.57;2.97;;;;;;;;;;5052836;28;20817;-72
2023/03/16 12:04:45;;;;;;;4.07;3.30;;;;;;;;;;5052440;28;20484;-71
2023/03/16 12:07:19;;;;;;;5.23;2.93;;;;;;;;;;5053038;28;20457;-72
2023/03/16 12:10:05;;;;;;;3.47;3.07;;;;;;;;;;5052040;28;20942;-72
2023/03/16 12:12:37;;;;;;;4.93;3.40;;;;;;;;;;5052783;28;20459;-72
2023/03/16 12:15:10;;;;;;;9.97;5.40;;;;;;;;;;5052678;28;20472;-72
2023/03/16 12:17:39;;;;;;;5.10;3.23;;;;;;;;;;5052785;28;20452;-72
2023/03/16 12:20:12;;;;;;;3.73;3.10;;;;;;;;;;5052584;28;20445;-72
2023/03/16 12:22:43;;;;;;;3.60;3.30;;;;;;;;;;5052780;28;20455;-72
2023/03/16 12:25:14;;;;;;;3.90;3.50;;;;;;;;;;5052438;28;20496;-71
2023/03/16 12:27:43;;;;;;;4.10;3.63;;;;;;;;;;5052815;28;20484;-71
2023/03/16 12:30:22;;;;;;;4.63;3.50;;;;;;;;;;5052411;28;20452;-71
2023/03/16 12:32:55;;;;;;;3.40;2.90;;;;;;;;;;5052468;28;20448;-71
2023/03/16 12:35:27;;;;;;;5.70;3.30;;;;;;;;;;5052357;28;20479;-72
2023/03/16 12:38:00;;;;;;;4.40;3.47;;;;;;;;;;5052678;28;20448;-72
2023/03/16 12:40:33;;;;;;;3.33;3.03;;;;;;;;;;5052513;28;20472;-72
2023/03/16 12:43:10;;;;;;;4.97;3.33;;;;;;;;;;5052725;28;20514;-72
2023/03/16 12:45:41;;;;;;;3.93;3.63;;;;;;;;;;5052394;28;20492;-72
2023/03/16 12:48:15;;;;;;;4.03;3.30;;;;;;;;;;5052484;28;20461;-72
2023/03/16 12:50:50;;;;;;;3.77;3.13;;;;;;;;;;5052457;28;20522;-72
2023/03/16 12:53:27;;;;;;;3.40;3.10;;;;;;;;;;5052351;28;20860;-72
2023/03/16 12:55:56;;;;;;;3.50;3.20;;;;;;;;;;5052282;28;20834;-72
2023/03/16 12:58:24;;;;;;;3.57;3.27;;;;;;;;;;5052292;28;20460;-72
2023/03/16 13:00:56;;;;;;;4.07;3.07;;;;;;;;;;5052403;28;20990;-71
2023/03/16 13:03:26;;;;;;;4.80;4.00;;;;;;;;;;5052356;28;20862;-71
2023/03/16 13:05:54;;;;;;;5.50;3.43;;;;;;;;;;5051261;28;20489;-71
2023/03/16 13:08:22;;;;;;;5.57;2.97;;;;;;;;;;5052120;28;20471;-71
2023/03/16 13:11:02;;;;;;;5.00;2.90;;;;;;;;;;5071851;28;20506;-71
2023/03/16 13:13:29;;;;;;;13.40;7.07;;;;;;;;;;5072043;28;20456;-70
2023/03/16 13:16:04;;;;;;;4.67;3.43;;;;;;;;;;5072151;28;20491;-71
2023/03/16 13:18:37;;;;;;;3.93;2.50;;;;;;;;;;5071838;28;20447;-71
2023/03/16 13:21:15;;;;;;;3.70;2.90;;;;;;;;;;5072756;28;20475;-71
2023/03/16 13:23:56;;;;;;;6.50;2.83;;;;;;;;;;5075912;28;20935;-71
2023/03/16 13:26:27;;;;;;;3.87;3.13;;;;;;;;;;5075592;28;21077;-71
2023/03/16 13:28:55;;;;;;;5.80;3.90;;;;;;;;;;5075678;28;20867;-71
2023/03/16 13:31:25;;;;;;;3.50;2.60;;;;;;;;;;5075327;28;20540;-71
2023/03/16 13:33:58;;;;;;;2.77;2.10;;;;;;;;;;5075542;28;21022;-70
2023/03/16 13:36:26;;;;;;;3.60;3.30;;;;;;;;;;5075711;28;20540;-71
2023/03/16 13:38:58;;;;;;;3.60;2.93;;;;;;;;;;5075465;28;20483;-71
2023/03/16 13:41:25;;;;;;;3.50;2.93;;;;;;;;;;5075219;28;20568;-71
2023/03/16 13:43:52;;;;;;;3.00;2.50;;;;;;;;;;5075263;28;20463;-71
2023/03/16 13:46:21;;;;;;;4.67;2.70;;;;;;;;;;5075229;28;20491;-71
2023/03/16 13:48:48;;;;;;;3.20;2.80;;;;;;;;;;5075281;28;20983;-70
2023/03/16 13:51:19;;;;;;;3.70;3.40;;;;;;;;;;5075264;28;20472;-71
2023/03/16 13:53:47;;;;;;;4.87;2.73;;;;;;;;;;5075192;28;20459;-70
2023/03/16 13:56:15;;;;;;;3.40;2.50;;;;;;;;;;5075060;28;20821;-70
2023/03/16 13:58:44;;;;;;;3.20;2.20;;;;;;;;;;5075218;28;20952;-71
2023/03/16 14:01:17;;;;;;;3.33;3.03;;;;;;;;;;5075001;28;20980;-70
2023/03/16 14:03:46;;;;;;;4.20;3.10;;;;;;;;;;5075651;28;20826;-71
2023/03/16 14:06:21;;;;;;;3.60;2.40;;;;;;;;;;5074374;28;20488;-71
2023/03/16 14:08:50;;;;;;;3.73;2.63;;;;;;;;;;5074880;28;20462;-71
2023/03/16 14:11:17;;;;;;;3.67;2.83;;;;;;;;;;5075491;28;20999;-71
2023/03/16 14:13:51;;;;;;;3.40;2.77;;;;;;;;;;5075199;28;20978;-70
2023/03/16 14:16:20;;;;;;;4.47;3.30;;;;;;;;;;5075060;28;20451;-71
2023/03/16 14:18:48;;;;;;;3.83;3.10;;;;;;;;;;5075414;28;20452;-71
2023/03/16 14:21:17;;;;;;;2.90;2.10;;;;;;;;;;5073993;28;20541;-71
2023/03/16 14:23:46;;;;;;;3.43;2.80;;;;;;;;;;5073083;28;20968;-72
2023/03/16 14:26:14;;;;;;;3.23;2.57;;;;;;;;;;5073936;28;20484;-71
2023/03/16 14:28:42;;;;;;;2.43;1.80;;;;;;;;;;5074052;28;20513;-71
2023/03/16 14:31:11;;;;;;;3.83;3.10;;;;;;;;;;5074203;28;20858;-71
2023/03/16 14:33:40;;;;;;;4.80;3.47;;;;;;;;;;5074289;28;20456;-71
2023/03/16 14:36:10;;;;;;;8.40;3.40;;;;;;;;;;5074309;28;20937;-71